AEZ2601 LICJ-LIRF
Flight info
| Callsign | AEZ2601 |
|---|---|
| Flight time | 0h 45m |
| Altitude | 32000 |
| Route | LURON DCT DORAS DCT BEROL DCT PNZ DCT NEKPI DCT LAT |
| Aircraft | B738/M-SDE2E3FGHIRWXY/LB1 |
Departure
| Time | 2026-05-04 15:19 |
|---|---|
| Airport | Falcone–Borsellino Airport (LICJ) |
Arrival
| Time | 2026-05-04 16:05 |
|---|---|
| Airport | Rome–Fiumicino Leonardo da Vinci International Airport (LIRF) |
| Time | Latitude | Longitude | Altitude | Speed | Heading |
|---|---|---|---|---|---|
| 2026-05-04 15:05 | 38.18386 | 13.10594 | 49 ft | 0 kts | 159° |
| 2026-05-04 15:14 | 38.18399 | 13.10588 | 50 ft | 2 kts | 159° |
| 2026-05-04 15:14 | 38.18414 | 13.10580 | 48 ft | 2 kts | 159° |
| 2026-05-04 15:14 | 38.18429 | 13.10573 | 50 ft | 2 kts | 161° |
| 2026-05-04 15:15 | 38.18445 | 13.10567 | 48 ft | 2 kts | 175° |
| 2026-05-04 15:15 | 38.18458 | 13.10573 | 49 ft | 1 kts | 249° |
| 2026-05-04 15:15 | 38.18458 | 13.10576 | 50 ft | 0 kts | 248° |
| 2026-05-04 15:16 | 38.18441 | 13.10529 | 52 ft | 14 kts | 244° |
| 2026-05-04 15:16 | 38.18395 | 13.10496 | 52 ft | 12 kts | 183° |
| 2026-05-04 15:16 | 38.18172 | 13.10253 | 50 ft | 31 kts | 249° |
| 2026-05-04 15:17 | 38.18079 | 13.09966 | 52 ft | 41 kts | 246° |
| 2026-05-04 15:17 | 38.17875 | 13.09357 | 52 ft | 35 kts | 247° |
| 2026-05-04 15:17 | 38.17781 | 13.09079 | 51 ft | 33 kts | 247° |
| 2026-05-04 15:18 | 38.17650 | 13.08865 | 52 ft | 30 kts | 217° |
| 2026-05-04 15:18 | 38.17497 | 13.08762 | 52 ft | 17 kts | 148° |
| 2026-05-04 15:18 | 38.17537 | 13.08950 | 50 ft | 46 kts | 66° |
| 2026-05-04 15:19 | 38.18121 | 13.10674 | 113 ft | 151 kts | 65° |
| 2026-05-04 15:19 | 38.18546 | 13.11910 | 685 ft | 154 kts | 66° |
| 2026-05-04 15:19 | 38.19433 | 13.14544 | 1855 ft | 175 kts | 66° |
| 2026-05-04 15:20 | 38.19958 | 13.16048 | 2222 ft | 198 kts | 66° |
| 2026-05-04 15:20 | 38.20541 | 13.17723 | 2588 ft | 217 kts | 65° |
| 2026-05-04 15:20 | 38.21465 | 13.19355 | 2795 ft | 239 kts | 44° |
| 2026-05-04 15:20 | 38.22808 | 13.20746 | 3090 ft | 261 kts | 28° |
| 2026-05-04 15:21 | 38.24489 | 13.21684 | 3730 ft | 268 kts | 21° |
| 2026-05-04 15:21 | 38.26248 | 13.22551 | 4454 ft | 274 kts | 21° |
| 2026-05-04 15:21 | 38.29829 | 13.24359 | 6207 ft | 281 kts | 21° |
| 2026-05-04 15:22 | 38.31641 | 13.25301 | 7107 ft | 281 kts | 21° |
| 2026-05-04 15:22 | 38.33463 | 13.26259 | 7953 ft | 284 kts | 21° |
| 2026-05-04 15:22 | 38.37148 | 13.28217 | 9624 ft | 291 kts | 20° |
| 2026-05-04 15:23 | 38.39027 | 13.29219 | 10364 ft | 295 kts | 20° |
| 2026-05-04 15:23 | 38.40958 | 13.30087 | 11129 ft | 294 kts | 6° |
| 2026-05-04 15:23 | 38.42976 | 13.29949 | 11915 ft | 290 kts | 343° |
| 2026-05-04 15:23 | 38.44912 | 13.29205 | 12714 ft | 291 kts | 339° |
| 2026-05-04 15:24 | 38.48754 | 13.27527 | 14226 ft | 296 kts | 338° |
| 2026-05-04 15:24 | 38.52691 | 13.25806 | 15489 ft | 307 kts | 339° |
| 2026-05-04 15:25 | 38.54790 | 13.24896 | 15642 ft | 329 kts | 339° |
| 2026-05-04 15:25 | 38.57024 | 13.23934 | 15785 ft | 349 kts | 339° |
| 2026-05-04 15:25 | 38.59392 | 13.22919 | 15939 ft | 368 kts | 339° |
| 2026-05-04 15:26 | 38.64477 | 13.20749 | 16228 ft | 400 kts | 339° |
| 2026-05-04 15:26 | 38.67147 | 13.19613 | 16621 ft | 407 kts | 339° |
| 2026-05-04 15:26 | 38.72545 | 13.17316 | 17765 ft | 410 kts | 339° |
| 2026-05-04 15:27 | 38.75267 | 13.16153 | 18268 ft | 413 kts | 339° |
| 2026-05-04 15:27 | 38.80727 | 13.13818 | 19166 ft | 418 kts | 339° |
| 2026-05-04 15:28 | 38.86312 | 13.11517 | 19977 ft | 427 kts | 345° |
| 2026-05-04 15:28 | 38.89286 | 13.11074 | 20410 ft | 433 kts | 353° |
| 2026-05-04 15:28 | 38.95324 | 13.10741 | 21295 ft | 436 kts | 354° |
| 2026-05-04 15:29 | 38.98362 | 13.10582 | 21707 ft | 439 kts | 354° |
| 2026-05-04 15:30 | 39.10575 | 13.09753 | 23740 ft | 436 kts | 354° |
| 2026-05-04 15:30 | 39.19728 | 13.09056 | 24679 ft | 443 kts | 353° |
| 2026-05-04 15:31 | 39.25909 | 13.08586 | 25347 ft | 446 kts | 353° |
| 2026-05-04 15:31 | 39.29020 | 13.08350 | 25673 ft | 447 kts | 353° |
| 2026-05-04 15:32 | 39.38313 | 13.07645 | 26746 ft | 448 kts | 353° |
| 2026-05-04 15:32 | 39.44514 | 13.07175 | 27644 ft | 444 kts | 352° |
| 2026-05-04 15:33 | 39.50641 | 13.06709 | 28608 ft | 438 kts | 352° |
| 2026-05-04 15:34 | 39.59714 | 13.06016 | 30064 ft | 432 kts | 350° |
| 2026-05-04 15:34 | 39.62705 | 13.05787 | 30446 ft | 431 kts | 350° |
| 2026-05-04 15:34 | 39.68699 | 13.05324 | 31045 ft | 431 kts | 350° |
| 2026-05-04 15:35 | 39.74679 | 13.04863 | 31716 ft | 430 kts | 349° |
| 2026-05-04 15:35 | 39.77662 | 13.04633 | 32091 ft | 428 kts | 349° |
| 2026-05-04 15:36 | 39.86668 | 13.03933 | 32115 ft | 432 kts | 349° |
| 2026-05-04 15:36 | 39.92594 | 13.03478 | 32119 ft | 427 kts | 349° |
| 2026-05-04 15:37 | 39.98528 | 13.03016 | 32126 ft | 427 kts | 349° |
| 2026-05-04 15:37 | 40.04465 | 13.02552 | 32124 ft | 428 kts | 349° |
| 2026-05-04 15:38 | 40.10414 | 13.02088 | 32126 ft | 428 kts | 349° |
| 2026-05-04 15:38 | 40.16369 | 13.01623 | 32126 ft | 429 kts | 349° |
| 2026-05-04 15:39 | 40.22326 | 13.01157 | 32129 ft | 429 kts | 349° |
| 2026-05-04 15:40 | 40.31262 | 13.00456 | 32129 ft | 428 kts | 349° |
| 2026-05-04 15:40 | 40.37204 | 12.99989 | 32124 ft | 428 kts | 349° |
| 2026-05-04 15:41 | 40.43150 | 12.99520 | 32134 ft | 427 kts | 349° |
| 2026-05-04 15:41 | 40.49073 | 12.99052 | 32122 ft | 427 kts | 349° |
| 2026-05-04 15:42 | 40.54997 | 12.98583 | 32129 ft | 426 kts | 349° |
| 2026-05-04 15:42 | 40.60910 | 12.98115 | 32126 ft | 425 kts | 349° |
| 2026-05-04 15:43 | 40.66814 | 12.97646 | 32129 ft | 425 kts | 349° |
| 2026-05-04 15:43 | 40.72698 | 12.97179 | 32044 ft | 419 kts | 349° |
| 2026-05-04 15:43 | 40.75554 | 12.96956 | 31530 ft | 415 kts | 349° |
| 2026-05-04 15:44 | 40.78443 | 12.96723 | 30741 ft | 418 kts | 349° |
| 2026-05-04 15:44 | 40.81368 | 12.96484 | 29815 ft | 424 kts | 349° |
| 2026-05-04 15:44 | 40.84337 | 12.96244 | 28715 ft | 430 kts | 350° |
| 2026-05-04 15:44 | 40.87353 | 12.96000 | 27527 ft | 439 kts | 351° |
| 2026-05-04 15:45 | 40.90418 | 12.95852 | 26395 ft | 449 kts | 357° |
| 2026-05-04 15:45 | 40.93549 | 12.96268 | 25649 ft | 453 kts | 7° |
| 2026-05-04 15:45 | 40.96617 | 12.97180 | 25045 ft | 449 kts | 9° |
| 2026-05-04 15:45 | 40.99647 | 12.98130 | 24425 ft | 445 kts | 10° |
| 2026-05-04 15:46 | 41.02645 | 12.99067 | 23821 ft | 441 kts | 10° |
| 2026-05-04 15:46 | 41.05631 | 12.99987 | 23124 ft | 438 kts | 10° |
| 2026-05-04 15:46 | 41.08585 | 13.00883 | 22470 ft | 434 kts | 10° |
| 2026-05-04 15:46 | 41.11514 | 13.01764 | 21879 ft | 429 kts | 10° |
| 2026-05-04 15:47 | 41.14403 | 13.02629 | 21282 ft | 424 kts | 9° |
| 2026-05-04 15:47 | 41.17274 | 13.03487 | 20690 ft | 420 kts | 9° |
| 2026-05-04 15:47 | 41.20115 | 13.04337 | 20117 ft | 417 kts | 9° |
| 2026-05-04 15:47 | 41.22935 | 13.05183 | 19546 ft | 414 kts | 9° |
| 2026-05-04 15:48 | 41.25729 | 13.06022 | 18993 ft | 411 kts | 9° |
| 2026-05-04 15:48 | 41.28513 | 13.06859 | 18421 ft | 409 kts | 9° |
| 2026-05-04 15:48 | 41.34035 | 13.07126 | 17191 ft | 392 kts | 343° |
| 2026-05-04 15:49 | 41.36557 | 13.05873 | 16622 ft | 384 kts | 329° |
| 2026-05-04 15:49 | 41.38830 | 13.04079 | 16319 ft | 373 kts | 326° |
| 2026-05-04 15:49 | 41.41002 | 13.02301 | 16161 ft | 361 kts | 326° |
| 2026-05-04 15:49 | 41.43115 | 13.00580 | 16013 ft | 350 kts | 326° |
| 2026-05-04 15:50 | 41.45164 | 12.98927 | 15861 ft | 340 kts | 326° |
| 2026-05-04 15:50 | 41.47165 | 12.97325 | 15745 ft | 330 kts | 326° |
| 2026-05-04 15:50 | 41.49104 | 12.95781 | 15633 ft | 321 kts | 326° |
| 2026-05-04 15:50 | 41.50994 | 12.94278 | 15505 ft | 312 kts | 326° |
| 2026-05-04 15:51 | 41.52646 | 12.92963 | 15385 ft | 305 kts | 326° |
| 2026-05-04 15:51 | 41.54447 | 12.91474 | 15206 ft | 298 kts | 321° |
| 2026-05-04 15:51 | 41.55991 | 12.89709 | 14915 ft | 295 kts | 314° |
| 2026-05-04 15:51 | 41.57466 | 12.87805 | 14625 ft | 294 kts | 313° |
| 2026-05-04 15:52 | 41.58927 | 12.85902 | 14333 ft | 293 kts | 314° |
| 2026-05-04 15:52 | 41.60392 | 12.84017 | 14036 ft | 293 kts | 314° |
| 2026-05-04 15:52 | 41.61870 | 12.82141 | 13704 ft | 293 kts | 315° |
| 2026-05-04 15:52 | 41.63355 | 12.80276 | 13373 ft | 292 kts | 315° |
| 2026-05-04 15:53 | 41.64837 | 12.78422 | 13055 ft | 292 kts | 315° |
| 2026-05-04 15:53 | 41.66316 | 12.76573 | 12758 ft | 291 kts | 314° |
| 2026-05-04 15:53 | 41.67789 | 12.74721 | 12433 ft | 290 kts | 314° |
| 2026-05-04 15:53 | 41.69251 | 12.72858 | 12057 ft | 292 kts | 314° |
| 2026-05-04 15:54 | 41.70732 | 12.70964 | 11661 ft | 296 kts | 314° |
| 2026-05-04 15:54 | 41.72224 | 12.69055 | 11313 ft | 297 kts | 314° |
| 2026-05-04 15:54 | 41.73715 | 12.67148 | 11023 ft | 296 kts | 314° |
| 2026-05-04 15:54 | 41.75198 | 12.65250 | 10723 ft | 296 kts | 314° |
| 2026-05-04 15:55 | 41.76686 | 12.63344 | 10413 ft | 297 kts | 314° |
| 2026-05-04 15:55 | 41.78178 | 12.61432 | 10099 ft | 296 kts | 314° |
| 2026-05-04 15:55 | 41.79665 | 12.59526 | 9741 ft | 296 kts | 314° |
| 2026-05-04 15:55 | 41.81156 | 12.57613 | 9412 ft | 295 kts | 314° |
| 2026-05-04 15:56 | 41.82629 | 12.55720 | 9095 ft | 294 kts | 314° |
| 2026-05-04 15:56 | 41.84105 | 12.53819 | 8771 ft | 293 kts | 314° |
| 2026-05-04 15:56 | 41.85547 | 12.51959 | 8424 ft | 290 kts | 314° |
| 2026-05-04 15:56 | 41.86531 | 12.50686 | 8128 ft | 290 kts | 314° |
| 2026-05-04 15:57 | 41.88457 | 12.48191 | 7563 ft | 292 kts | 314° |
| 2026-05-04 15:57 | 41.89913 | 12.46297 | 7272 ft | 290 kts | 314° |
| 2026-05-04 15:57 | 41.91358 | 12.44414 | 7007 ft | 288 kts | 314° |
| 2026-05-04 15:57 | 41.92781 | 12.42557 | 6629 ft | 285 kts | 314° |
| 2026-05-04 15:58 | 41.94205 | 12.40695 | 6126 ft | 286 kts | 314° |
| 2026-05-04 15:58 | 41.95171 | 12.39438 | 5783 ft | 287 kts | 314° |
| 2026-05-04 15:58 | 41.96586 | 12.37605 | 5350 ft | 285 kts | 314° |
| 2026-05-04 15:58 | 41.98022 | 12.35744 | 4939 ft | 282 kts | 314° |
| 2026-05-04 15:59 | 41.99429 | 12.33913 | 4497 ft | 281 kts | 314° |
| 2026-05-04 15:59 | 42.00775 | 12.32031 | 4065 ft | 277 kts | 303° |
| 2026-05-04 15:59 | 42.01470 | 12.29712 | 3814 ft | 259 kts | 272° |
| 2026-05-04 15:59 | 42.01346 | 12.27417 | 3660 ft | 239 kts | 256° |
| 2026-05-04 16:00 | 42.01012 | 12.25248 | 3218 ft | 233 kts | 254° |
| 2026-05-04 16:00 | 42.00487 | 12.23273 | 2827 ft | 218 kts | 232° |
| 2026-05-04 16:00 | 41.99366 | 12.22097 | 2604 ft | 198 kts | 199° |
| 2026-05-04 16:00 | 41.98098 | 12.21589 | 2526 ft | 184 kts | 194° |
| 2026-05-04 16:01 | 41.96887 | 12.21153 | 2405 ft | 179 kts | 194° |
| 2026-05-04 16:01 | 41.95691 | 12.20871 | 2281 ft | 174 kts | 174° |
| 2026-05-04 16:01 | 41.94544 | 12.21334 | 2197 ft | 172 kts | 161° |
| 2026-05-04 16:01 | 41.93550 | 12.22188 | 2044 ft | 171 kts | 142° |
| 2026-05-04 16:02 | 41.92500 | 12.22921 | 1717 ft | 166 kts | 173° |
| 2026-05-04 16:02 | 41.91391 | 12.23259 | 1461 ft | 162 kts | 160° |
| 2026-05-04 16:02 | 41.89390 | 12.24153 | 1095 ft | 144 kts | 166° |
| 2026-05-04 16:03 | 41.88423 | 12.24552 | 846 ft | 142 kts | 166° |
| 2026-05-04 16:03 | 41.87498 | 12.24940 | 677 ft | 143 kts | 164° |
| 2026-05-04 16:03 | 41.86550 | 12.25336 | 465 ft | 141 kts | 164° |
| 2026-05-04 16:03 | 41.85616 | 12.25730 | 275 ft | 142 kts | 165° |
| 2026-05-04 16:04 | 41.84664 | 12.26125 | 102 ft | 144 kts | 165° |
| 2026-05-04 16:04 | 41.82952 | 12.26839 | 12 ft | 94 kts | 162° |
| 2026-05-04 16:04 | 41.82473 | 12.27042 | 10 ft | 54 kts | 162° |
| 2026-05-04 16:05 | 41.82161 | 12.27157 | 10 ft | 33 kts | 176° |
| 2026-05-04 16:05 | 41.81957 | 12.27110 | 10 ft | 29 kts | 192° |
| 2026-05-04 16:05 | 41.81590 | 12.27087 | 12 ft | 25 kts | 161° |
| 2026-05-04 16:06 | 41.81429 | 12.27157 | 11 ft | 23 kts | 163° |
| 2026-05-04 16:06 | 41.81031 | 12.27320 | 11 ft | 21 kts | 163° |
| 2026-05-04 16:07 | 41.80840 | 12.27332 | 11 ft | 21 kts | 193° |
| 2026-05-04 16:07 | 41.80622 | 12.27105 | 12 ft | 9 kts | 250° |
| 2026-05-04 16:08 | 41.80600 | 12.27026 | 14 ft | 9 kts | 249° |
| 2026-05-04 16:08 | 41.80516 | 12.26720 | 15 ft | 14 kts | 249° |
| 2026-05-04 16:09 | 41.80450 | 12.26477 | 14 ft | 14 kts | 250° |
| 2026-05-04 16:09 | 41.80283 | 12.26400 | 13 ft | 17 kts | 162° |
| 2026-05-04 16:10 | 41.80096 | 12.26507 | 13 ft | 15 kts | 91° |
| 2026-05-04 16:11 | 41.79886 | 12.26699 | 13 ft | 13 kts | 160° |
| 2026-05-04 16:11 | 41.79814 | 12.26734 | 13 ft | 6 kts | 160° |
| 2026-05-04 16:12 | 41.79776 | 12.26681 | 13 ft | 0 kts | 248° |